TAF PACV
PACV 072320Z 0800/0824 VRB03KT P6SM OVC030 FM081000 VRB02KT P6SM VCSH OVC035=
METAR PACV
WC PACV
WS PACV
WV PACV